Time;durP1;ratioP1;P1;durP2;ratioP2;P2;SDS_P1;SDS_P2;PMS_P1;PMS_P2;Temp;Humidity;BMP_temperature;BMP_pressure;BME280_temperature;BME280_humidity;BME280_pressure;Samples;Min_cycle;Max_cycle;Signal;HPM_P1;HPM_P2
2023/01/09 00:00:17;;;;;;;12.47;7.60;;;;;;;-12.04;89.03;102267.75;5044081;28;20021;-73
2023/01/09 00:02:45;;;;;;;11.10;8.00;;;;;;;-12.01;89.71;102269.50;5000922;28;20034;-72
2023/01/09 00:05:12;;;;;;;12.50;8.68;;;;;;;-12.04;88.93;102269.47;5016816;28;20037;-72
2023/01/09 00:07:38;;;;;;;9.98;7.38;;;;;;;-12.06;89.80;102274.59;5000471;28;20041;-70
2023/01/09 00:10:05;;;;;;;8.67;6.80;;;;;;;-12.11;89.79;102247.16;5033678;28;20538;-71
2023/01/09 00:12:31;;;;;;;11.05;7.18;;;;;;;-12.12;89.02;102251.41;5033703;28;20033;-71
2023/01/09 00:14:58;;;;;;;8.73;7.70;;;;;;;-12.43;89.31;102214.28;5035294;28;20473;-71
2023/01/09 00:17:24;;;;;;;10.63;7.82;;;;;;;-12.13;90.08;102259.09;5033374;28;20037;-69
2023/01/09 00:19:49;;;;;;;10.10;7.57;;;;;;;-12.12;90.13;102260.81;5035317;28;20091;-71
2023/01/09 00:22:15;;;;;;;10.77;6.87;;;;;;;-12.03;90.48;102260.91;5026710;28;20120;-71
2023/01/09 00:24:40;;;;;;;9.27;7.20;;;;;;;-11.99;90.11;102257.53;5034112;28;20026;-73
2023/01/09 00:27:06;;;;;;;10.47;7.33;;;;;;;-12.02;89.72;102242.09;5016139;28;20029;-71
2023/01/09 00:29:31;;;;;;;10.03;7.63;;;;;;;-11.95;89.73;102246.44;5033517;28;20048;-72
2023/01/09 00:31:57;;;;;;;9.07;7.20;;;;;;;-11.89;90.35;102249.91;5033672;28;20029;-69
2023/01/09 00:34:23;;;;;;;10.43;7.53;;;;;;;-11.80;90.47;102244.03;5033726;28;20156;-70
2023/01/09 00:36:53;;;;;;;14.40;9.23;;;;;;;-11.68;90.52;102238.97;5033571;28;20029;-70
2023/01/09 00:39:20;;;;;;;10.95;8.30;;;;;;;-11.61;89.31;102238.16;5033506;28;20032;-71
2023/01/09 00:41:50;;;;;;;8.25;6.28;;;;;;;-11.75;89.38;102237.19;5033594;28;20163;-71
2023/01/09 00:44:32;;;;;;;12.35;8.52;;;;;;;-11.83;89.58;102233.72;5033057;28;20491;-70
2023/01/09 00:47:04;;;;;;;13.45;9.52;;;;;;;-11.78;89.84;102239.75;5033010;28;20476;-69
2023/01/09 00:49:32;;;;;;;9.65;7.22;;;;;;;-11.87;89.51;102221.66;5033766;28;20492;-71
2023/01/09 00:51:59;;;;;;;;;;;;;;;-11.71;90.16;102222.66;5017851;28;20108;-70
2023/01/09 01:02:04;;;;;;;11.90;7.93;;;;;;;-12.27;90.12;102161.38;5038157;28;20026;-73
2023/01/09 01:09:57;;;;;;;13.60;8.65;;;;;;;-12.08;90.65;102183.81;5030773;28;20075;-70
2023/01/09 01:12:23;;;;;;;8.47;7.50;;;;;;;-11.93;90.52;102206.22;5014835;28;20032;-72
2023/01/09 01:14:51;;;;;;;15.13;9.87;;;;;;;-11.98;90.73;102198.47;5032374;28;20029;-71
2023/01/09 01:17:18;;;;;;;10.98;8.02;;;;;;;-11.96;91.41;102201.91;5032454;28;20534;-71
2023/01/09 01:19:44;;;;;;;16.45;8.10;;;;;;;-11.93;91.71;102176.25;5032653;28;20106;-72
2023/01/09 01:22:09;;;;;;;10.60;8.40;;;;;;;-11.86;91.23;102169.44;5014674;28;20085;-72
2023/01/09 01:24:35;;;;;;;13.57;8.63;;;;;;;-11.75;91.23;102193.50;5033880;28;20040;-73
2023/01/09 01:27:01;;;;;;;13.53;8.50;;;;;;;-11.86;91.13;102187.44;5038606;28;20030;-71
2023/01/09 01:29:29;;;;;;;14.40;8.83;;;;;;;-11.87;91.29;102175.44;5040850;28;20029;-75
2023/01/09 01:31:55;;;;;;;16.58;9.48;;;;;;;-11.97;91.59;102173.63;5035402;28;20032;-70
2023/01/09 01:34:20;;;;;;;8.63;7.70;;;;;;;-11.95;91.83;102193.34;5033014;28;20037;-72
2023/01/09 01:36:47;;;;;;;9.97;6.97;;;;;;;-11.88;92.00;102179.69;5015120;28;20267;-72
2023/01/09 01:39:13;;;;;;;13.50;9.77;;;;;;;-11.82;91.98;102183.19;5032225;28;20117;-71
2023/01/09 01:41:39;;;;;;;12.30;8.37;;;;;;;-11.82;92.17;102178.06;5015145;28;20095;-72
2023/01/09 01:44:26;;;;;;;13.97;7.80;;;;;;;-11.80;91.96;102172.09;5032922;28;20029;-72
2023/01/09 01:46:53;;;;;;;13.43;9.35;;;;;;;-11.65;92.25;102185.00;5013208;28;20493;-73
2023/01/09 01:49:19;;;;;;;14.05;8.27;;;;;;;-11.61;91.36;102179.03;5032560;28;20079;-73
2023/01/09 01:51:50;;;;;;;11.70;8.30;;;;;;;-11.62;91.06;102177.31;5014853;28;20017;-73
2023/01/09 01:54:23;;;;;;;12.00;7.72;;;;;;;-11.60;91.48;102167.03;5032483;28;20065;-71
2023/01/09 01:56:58;;;;;;;12.05;8.95;;;;;;;-11.63;90.89;102191.03;5031889;28;20029;-72
2023/01/09 01:59:36;;;;;;;11.45;7.20;;;;;;;-11.82;91.43;102147.22;5032903;28;20045;-75
2023/01/09 02:02:03;;;;;;;18.48;9.50;;;;;;;-11.68;91.58;102172.13;5032863;28;20053;-74
2023/01/09 02:04:33;;;;;;;9.93;8.13;;;;;;;-11.70;91.71;102178.97;5032999;28;20398;-73
2023/01/09 02:07:01;;;;;;;16.88;8.95;;;;;;;-11.68;91.76;102167.00;5014166;28;20026;-72
2023/01/09 02:09:28;;;;;;;10.93;8.05;;;;;;;-11.50;92.05;102186.00;5032545;28;20033;-71
2023/01/09 02:11:57;;;;;;;15.13;9.38;;;;;;;-11.50;90.90;102193.69;5031002;28;20469;-74
2023/01/09 02:14:29;;;;;;;11.07;8.30;;;;;;;-11.57;91.14;102175.63;5032436;28;20036;-73
2023/01/09 02:17:33;;;;;;;12.93;7.93;;;;;;;-11.57;91.47;102173.06;5018205;28;20046;-72
2023/01/09 02:20:28;;;;;;;13.07;9.15;;;;;;;-11.44;91.75;102168.03;5036650;28;20053;-71
2023/01/09 02:23:33;;;;;;;14.73;8.00;;;;;;;-11.45;91.47;102164.59;5018403;28;20048;-72
2023/01/09 02:26:33;;;;;;;11.30;7.63;;;;;;;-11.45;91.35;102164.59;5038235;28;20443;-72
2023/01/09 02:29:36;;;;;;;12.60;7.85;;;;;;;-11.47;91.75;102145.72;5002671;28;20075;-73
2023/01/09 02:32:10;;;;;;;12.52;8.23;;;;;;;-11.32;92.00;102171.53;5002799;28;20381;-71
2023/01/09 02:35:04;;;;;;;12.68;8.15;;;;;;;-11.28;91.36;102156.97;5035695;28;20091;-70
2023/01/09 02:37:35;;;;;;;11.35;7.82;;;;;;;-11.33;90.76;102154.38;5036505;28;20033;-73
2023/01/09 02:40:11;;;;;;;13.50;8.00;;;;;;;-11.36;91.10;102153.50;5022417;28;20029;-74
2023/01/09 02:42:40;;;;;;;15.60;9.55;;;;;;;-11.43;91.04;102154.31;5039513;28;20511;-72
2023/01/09 02:45:06;;;;;;;12.18;8.43;;;;;;;-11.50;91.74;102150.84;5040947;28;20053;-74
2023/01/09 02:47:38;;;;;;;11.13;7.77;;;;;;;-11.44;91.67;102150.03;5039391;28;20033;-71
2023/01/09 02:50:08;;;;;;;14.05;7.45;;;;;;;-11.41;92.01;102144.91;5020382;28;20035;-70
2023/01/09 02:52:40;;;;;;;12.93;8.25;;;;;;;-11.24;91.90;102169.03;5038019;28;20033;-73
2023/01/09 02:55:23;;;;;;;11.00;7.68;;;;;;;-11.22;91.02;102161.31;5018377;28;20056;-72
2023/01/09 02:58:05;;;;;;;10.88;8.35;;;;;;;-11.30;90.87;102153.53;5035729;28;20033;-72
2023/01/09 03:01:00;;;;;;;12.18;7.40;;;;;;;-11.37;90.70;102151.78;5035281;28;20412;-71
2023/01/09 03:04:03;;;;;;;11.65;6.80;;;;;;;-11.36;91.38;102146.66;5032887;28;20037;-73
2023/01/09 03:06:28;;;;;;;9.30;6.70;;;;;;;-11.33;90.96;102151.81;5035771;28;20079;-71
2023/01/09 03:08:58;;;;;;;15.93;8.40;;;;;;;-11.31;91.31;102147.53;5036113;28;20112;-72
2023/01/09 03:11:27;;;;;;;7.30;6.55;;;;;;;-11.32;90.54;102147.53;5036582;28;20191;-73
2023/01/09 03:13:56;;;;;;;11.52;6.75;;;;;;;-11.28;90.49;102147.53;5036457;28;20037;-71
2023/01/09 03:16:25;;;;;;;;;;;;;;;-11.25;90.22;102151.88;5036671;28;20458;-71
2023/01/09 03:18:53;;;;;;;10.27;8.70;;;;;;;-11.45;90.48;102122.59;5036182;28;20272;-74
2023/01/09 03:21:20;;;;;;;13.55;7.38;;;;;;;-11.33;90.28;102148.38;5036434;28;20377;-71
2023/01/09 03:23:58;;;;;;;10.75;8.07;;;;;;;-11.37;90.32;102141.50;5037981;28;20036;-73
2023/01/09 03:26:25;;;;;;;9.43;6.63;;;;;;;-11.39;90.19;102143.19;5036323;28;20025;-72
2023/01/09 03:28:51;;;;;;;12.23;7.70;;;;;;;-11.36;90.29;102144.06;5035520;28;20041;-71
2023/01/09 03:31:17;;;;;;;7.68;6.78;;;;;;;-11.29;90.29;102129.53;5017639;28;20469;-71
2023/01/09 03:33:42;;;;;;;12.32;6.68;;;;;;;-11.26;90.27;102134.72;5036013;28;20025;-71
2023/01/09 03:36:10;;;;;;;12.03;8.43;;;;;;;-11.21;90.67;102133.03;5036171;28;20030;-71
2023/01/09 03:38:36;;;;;;;10.10;6.93;;;;;;;-11.16;90.10;102131.34;5035930;28;20064;-73
2023/01/09 03:41:02;;;;;;;10.27;7.47;;;;;;;-11.15;90.13;102122.78;5018058;28;20033;-74
2023/01/09 03:43:28;;;;;;;11.23;6.70;;;;;;;-11.06;89.85;102127.09;5035466;28;20263;-73
2023/01/09 03:45:53;;;;;;;8.27;6.63;;;;;;;-11.36;89.59;102066.94;5035629;28;20021;-71
2023/01/09 03:48:19;;;;;;;9.07;5.97;;;;;;;-11.01;89.49;102131.41;5018595;28;20025;-73
2023/01/09 03:50:48;;;;;;;9.77;6.13;;;;;;;-11.02;90.06;102129.69;5035568;28;20038;-74
2023/01/09 03:53:13;;;;;;;9.48;7.88;;;;;;;-11.03;89.09;102139.97;5034843;28;20025;-73
2023/01/09 03:55:42;;;;;;;10.70;8.03;;;;;;;-11.09;89.30;102137.38;5034934;28;20029;-71
2023/01/09 03:58:08;;;;;;;8.73;7.72;;;;;;;-11.04;89.69;102136.53;5037084;28;20030;-75
2023/01/09 04:00:34;;;;;;;10.02;7.15;;;;;;;-11.08;89.62;102139.94;5035025;28;20068;-73
2023/01/09 04:03:00;;;;;;;13.43;7.53;;;;;;;-11.17;89.53;102109.03;5017702;28;20088;-73
2023/01/09 04:05:25;;;;;;;12.07;7.47;;;;;;;-11.10;89.62;102121.06;5017691;28;20025;-71
2023/01/09 04:07:51;;;;;;;10.90;8.60;;;;;;;-10.99;90.02;102134.84;5035942;28;20072;-72
2023/01/09 04:10:16;;;;;;;8.10;7.30;;;;;;;-10.93;89.94;102128.03;5016912;28;20037;-69
2023/01/09 04:12:42;;;;;;;10.17;7.13;;;;;;;-11.14;89.35;102092.75;5016712;28;20025;-73
2023/01/09 04:15:08;;;;;;;8.50;7.07;;;;;;;-10.90;89.60;102133.19;5033630;28;20055;-73
2023/01/09 04:17:34;;;;;;;12.07;6.75;;;;;;;-10.88;89.37;102146.91;5034857;28;20044;-74
2023/01/09 04:19:59;;;;;;;10.75;7.45;;;;;;;-10.90;89.20;102144.31;5034845;28;20044;-74
2023/01/09 04:22:25;;;;;;;13.20;7.57;;;;;;;-10.97;88.98;102128.00;5034037;28;20029;-73
2023/01/09 04:24:50;;;;;;;7.83;6.23;;;;;;;-11.00;88.56;102140.84;5033950;28;20083;-74
2023/01/09 04:27:17;;;;;;;9.48;7.60;;;;;;;-11.00;89.23;102145.13;5033588;28;20400;-75
2023/01/09 04:29:47;;;;;;;13.33;7.47;;;;;;;-10.92;88.98;102152.91;5033576;28;20030;-69
2023/01/09 04:32:15;;;;;;;7.63;6.82;;;;;;;-11.14;88.59;102114.19;5033905;28;20304;-70
2023/01/09 04:34:40;;;;;;;8.63;6.93;;;;;;;-10.97;88.38;102143.44;5033779;28;20033;-70
2023/01/09 04:37:06;;;;;;;10.03;7.70;;;;;;;-11.02;88.97;102142.53;5033579;28;20028;-67
2023/01/09 04:39:31;;;;;;;9.47;6.47;;;;;;;-11.09;88.95;102134.78;5033413;28;20035;-71
2023/01/09 04:41:57;;;;;;;11.33;7.07;;;;;;;-11.02;88.85;102134.81;5032877;28;20029;-71
2023/01/09 04:44:27;;;;;;;10.90;7.73;;;;;;;-11.01;88.78;102141.69;5015591;28;20060;-71
2023/01/09 04:46:54;;;;;;;12.02;8.27;;;;;;;-11.09;88.87;102138.22;5033209;28;20029;-70
2023/01/09 04:49:20;;;;;;;12.00;7.28;;;;;;;-11.08;90.09;102141.66;5032866;28;20432;-69
2023/01/09 04:51:46;;;;;;;9.27;7.23;;;;;;;-11.09;90.32;102130.50;5032721;28;20040;-69
2023/01/09 04:54:12;;;;;;;9.47;7.47;;;;;;;-10.99;89.62;102145.13;5031555;28;20848;-69
2023/01/09 04:56:37;;;;;;;9.07;7.53;;;;;;;-10.97;88.72;102138.31;5031174;28;20373;-72
2023/01/09 04:59:04;;;;;;;10.40;7.53;;;;;;;-11.04;89.19;102141.69;5015114;28;20056;-69
2023/01/09 05:01:31;;;;;;;9.45;7.03;;;;;;;-10.95;89.54;102146.88;5016301;28;20385;-70
2023/01/09 05:03:57;;;;;;;10.32;7.32;;;;;;;-10.89;89.18;102145.19;5033684;28;20030;-70
2023/01/09 05:06:24;;;;;;;10.17;6.67;;;;;;;-10.85;88.71;102144.34;5033635;28;20024;-68
2023/01/09 05:08:49;;;;;;;8.68;7.47;;;;;;;-10.92;88.10;102132.31;5033515;28;20026;-69
2023/01/09 05:11:15;;;;;;;13.27;7.20;;;;;;;-11.03;88.71;102111.66;5032834;28;20077;-70
2023/01/09 05:13:43;;;;;;;8.15;6.18;;;;;;;-10.90;88.29;102128.88;5034204;28;20041;-72
2023/01/09 05:16:10;;;;;;;11.40;7.68;;;;;;;-10.85;88.03;102132.34;5033456;28;20045;-72
2023/01/09 05:18:36;;;;;;;10.50;7.10;;;;;;;-10.82;88.39;102134.91;5018584;28;20025;-70
2023/01/09 05:21:02;;;;;;;9.57;7.05;;;;;;;-10.79;88.13;102134.06;5040469;28;20107;-70
2023/01/09 05:23:28;;;;;;;11.63;7.13;;;;;;;-10.78;87.69;102134.06;5043772;28;20524;-70
2023/01/09 05:25:53;;;;;;;11.67;7.47;;;;;;;-10.82;87.60;102139.19;5041292;28;20048;-70
2023/01/09 05:28:19;;;;;;;9.20;6.17;;;;;;;-10.77;87.77;102145.22;5037392;28;20029;-73
2023/01/09 05:30:48;;;;;;;11.63;6.47;;;;;;;-10.77;87.44;102134.94;5016096;28;20143;-71
2023/01/09 05:33:18;;;;;;;10.40;6.82;;;;;;;-10.79;87.93;102131.50;5015754;28;20022;-70
2023/01/09 05:35:45;;;;;;;9.50;6.50;;;;;;;-10.87;87.94;102102.31;5034050;28;20034;-71
2023/01/09 05:38:11;;;;;;;12.02;7.20;;;;;;;-10.70;87.24;102129.78;5017896;28;20070;-70
2023/01/09 05:40:38;;;;;;;12.60;8.40;;;;;;;-10.78;86.51;102113.47;5035623;28;20022;-71
2023/01/09 05:43:03;;;;;;;8.35;6.72;;;;;;;-10.82;86.82;102124.63;5034923;28;20041;-70
2023/01/09 05:45:29;;;;;;;10.80;7.53;;;;;;;-10.81;87.21;102115.19;5033578;28;20032;-70
2023/01/09 05:47:55;;;;;;;12.40;7.27;;;;;;;-10.77;87.59;102124.63;5033212;28;20030;-71
2023/01/09 05:50:20;;;;;;;8.93;6.83;;;;;;;-11.10;87.35;102059.34;5015356;28;20120;-71
2023/01/09 05:52:46;;;;;;;12.27;7.93;;;;;;;-10.81;87.30;102105.75;5034101;28;20037;-73
2023/01/09 05:55:12;;;;;;;10.90;7.27;;;;;;;-10.71;87.80;102122.06;5034514;28;20633;-72
2023/01/09 05:57:38;;;;;;;8.57;6.90;;;;;;;-10.73;87.65;102126.34;5032316;28;20148;-73
2023/01/09 06:00:04;;;;;;;7.47;6.53;;;;;;;-10.73;87.41;102128.94;5032748;28;20268;-73
2023/01/09 06:02:55;;;;;;;15.45;8.23;;;;;;;-10.75;87.60;102125.50;5032425;28;20056;-73
2023/01/09 06:05:20;;;;;;;11.43;7.23;;;;;;;-10.74;87.57;102124.63;5032200;28;20025;-75
2023/01/09 06:07:46;;;;;;;7.40;5.97;;;;;;;-10.80;87.67;102124.63;5032137;28;20036;-74
2023/01/09 06:10:13;;;;;;;11.43;7.73;;;;;;;-10.78;88.81;102120.34;5033841;28;20180;-74
2023/01/09 06:12:40;;;;;;;11.32;7.38;;;;;;;-10.81;88.89;102113.47;5033603;28;20164;-75
2023/01/09 06:15:07;;;;;;;10.52;7.30;;;;;;;-10.73;88.49;102122.06;5032701;28;20056;-73
2023/01/09 06:17:32;;;;;;;10.60;7.05;;;;;;;-10.75;88.04;102117.78;5032584;28;20040;-71
2023/01/09 06:19:58;;;;;;;10.97;6.83;;;;;;;-10.71;87.38;102120.34;5034424;28;20377;-74
2023/01/09 06:22:23;;;;;;;11.60;7.30;;;;;;;-10.70;87.75;102126.38;5032426;28;20032;-72
2023/01/09 06:24:49;;;;;;;10.80;6.90;;;;;;;-10.70;88.49;102110.91;5032288;28;20037;-73
2023/01/09 06:27:14;;;;;;;7.67;6.57;;;;;;;-10.61;88.38;102116.13;5032033;28;20112;-72
2023/01/09 06:29:40;;;;;;;9.20;6.80;;;;;;;-10.61;87.65;102110.97;5032330;28;20052;-71
2023/01/09 06:32:05;;;;;;;11.73;7.43;;;;;;;-10.64;87.99;102110.97;5032280;28;20029;-73
2023/01/09 06:34:31;;;;;;;10.30;7.33;;;;;;;-10.70;88.02;102106.63;5032508;28;20087;-71
2023/01/09 06:36:56;;;;;;;9.07;6.27;;;;;;;-10.60;88.20;102110.09;5032898;28;20120;-71
2023/01/09 06:39:22;;;;;;;7.13;6.33;;;;;;;-10.61;88.34;102099.81;5035248;28;20469;-70
2023/01/09 06:41:47;;;;;;;10.37;7.60;;;;;;;-10.60;88.73;102104.97;5035996;28;20540;-72
2023/01/09 06:44:13;;;;;;;11.07;7.97;;;;;;;-10.61;89.14;102112.69;5037929;28;20071;-72
2023/01/09 06:46:38;;;;;;;11.07;7.67;;;;;;;-10.81;89.07;102092.03;5020036;28;20032;-71
2023/01/09 06:49:04;;;;;;;10.43;8.17;;;;;;;-10.75;89.95;102105.75;5033307;28;20033;-73
2023/01/09 06:51:30;;;;;;;8.97;6.50;;;;;;;-10.71;90.37;102101.47;5032553;28;20167;-72
2023/01/09 06:53:55;;;;;;;8.17;6.67;;;;;;;-10.59;89.41;102114.41;5032680;28;20029;-73
2023/01/09 06:56:21;;;;;;;10.50;7.53;;;;;;;-10.57;90.12;102124.69;5032064;28;20044;-70
2023/01/09 06:58:46;;;;;;;8.27;6.87;;;;;;;-10.59;89.54;102123.84;5014030;28;20143;-74
2023/01/09 07:01:12;;;;;;;9.87;7.20;;;;;;;-10.62;89.47;102124.69;5032038;28;20032;-73
2023/01/09 07:03:39;;;;;;;9.40;7.25;;;;;;;-10.85;89.86;102103.16;5031683;28;20125;-73
2023/01/09 07:06:05;;;;;;;8.93;7.37;;;;;;;-10.65;89.95;102124.69;5016909;28;20538;-71
2023/01/09 07:08:30;;;;;;;8.90;6.72;;;;;;;-10.70;90.13;102131.50;5035254;28;20477;-73
2023/01/09 07:10:56;;;;;;;8.97;6.90;;;;;;;-10.65;91.14;102119.53;5035365;28;20084;-71
2023/01/09 07:13:22;;;;;;;13.03;6.60;;;;;;;-10.59;90.49;102118.69;5035625;28;20355;-71
2023/01/09 07:15:48;;;;;;;9.07;6.37;;;;;;;-10.63;90.89;102123.84;5035261;28;20487;-72
2023/01/09 07:18:14;;;;;;;7.20;6.00;;;;;;;-10.57;90.76;102112.69;5035034;28;20134;-71
2023/01/09 07:20:40;;;;;;;9.07;6.50;;;;;;;-10.52;90.49;102136.72;5017279;28;20481;-72
2023/01/09 07:23:10;;;;;;;11.65;7.35;;;;;;;-10.58;91.00;102131.56;5035466;28;20087;-73
2023/01/09 07:25:36;;;;;;;6.93;6.03;;;;;;;-10.51;90.51;102123.00;5035343;28;20029;-70
2023/01/09 07:28:02;;;;;;;6.70;6.03;;;;;;;-10.87;91.00;102055.97;5035605;28;20036;-73
2023/01/09 07:30:27;;;;;;;7.40;6.63;;;;;;;-10.34;89.59;102126.47;5035225;28;20029;-73
2023/01/09 07:32:52;;;;;;;10.60;6.67;;;;;;;-10.50;90.21;102116.13;5035214;28;20022;-70
2023/01/09 07:35:19;;;;;;;9.63;6.90;;;;;;;-10.44;89.94;102132.44;5035212;28;20025;-75
2023/01/09 07:37:45;;;;;;;8.98;7.45;;;;;;;-10.44;90.38;102122.16;5019738;28;20358;-71
2023/01/09 07:40:11;;;;;;;10.05;7.32;;;;;;;-10.46;90.45;102126.44;5022145;28;20181;-70
2023/01/09 07:42:38;;;;;;;12.27;7.18;;;;;;;-10.44;90.24;102127.28;5045016;28;20076;-72
2023/01/09 07:45:04;;;;;;;7.50;6.00;;;;;;;-10.41;90.68;102118.72;5019575;28;20026;-71
2023/01/09 07:47:30;;;;;;;9.57;7.07;;;;;;;-10.30;90.48;102126.47;5018793;28;20401;-72
2023/01/09 07:49:56;;;;;;;9.10;7.47;;;;;;;-10.27;90.06;102137.63;5036941;28;20025;-75
2023/01/09 07:52:21;;;;;;;11.87;7.87;;;;;;;-10.34;89.95;102121.31;5036957;28;20025;-70
2023/01/09 07:54:47;;;;;;;11.53;6.40;;;;;;;-10.40;90.10;102141.06;5035345;28;20040;-72
2023/01/09 07:57:13;;;;;;;8.87;7.03;;;;;;;-10.43;91.00;102131.59;5035855;28;20037;-75
2023/01/09 07:59:38;;;;;;;8.73;6.37;;;;;;;-10.57;91.55;102107.53;5036099;28;20139;-73
2023/01/09 08:02:05;;;;;;;11.07;7.53;;;;;;;-10.44;91.26;102118.72;5036302;28;20048;-72
2023/01/09 08:04:31;;;;;;;8.63;7.72;;;;;;;-10.35;91.06;102132.47;5037383;28;20048;-70
2023/01/09 08:06:57;;;;;;;9.05;6.82;;;;;;;-10.39;91.13;102137.63;5036710;28;20029;-73
2023/01/09 08:09:23;;;;;;;7.83;6.70;;;;;;;-10.42;91.07;102133.31;5016871;28;20402;-73
2023/01/09 08:11:49;;;;;;;14.07;6.33;;;;;;;-10.39;91.04;102142.78;5033845;28;20032;-72
2023/01/09 08:14:15;;;;;;;7.88;6.60;;;;;;;-10.27;90.51;102152.25;5033949;28;20025;-72
2023/01/09 08:16:41;;;;;;;7.33;5.70;;;;;;;-10.32;90.09;102150.50;5033431;28;20108;-74
2023/01/09 08:19:07;;;;;;;8.85;7.18;;;;;;;-10.37;90.15;102139.34;5034281;28;20427;-74
2023/01/09 08:21:33;;;;;;;8.30;6.40;;;;;;;-10.41;89.94;102129.91;5034268;28;20038;-73
2023/01/09 08:24:01;;;;;;;6.77;6.13;;;;;;;-10.29;89.80;102162.53;5034216;28;20080;-76
2023/01/09 08:26:27;;;;;;;6.68;5.90;;;;;;;-10.30;90.35;102162.53;5016722;28;20037;-75
2023/01/09 08:28:52;;;;;;;12.07;6.80;;;;;;;-10.44;90.69;102127.28;5033806;28;20041;-74
2023/01/09 08:31:18;;;;;;;7.87;7.07;;;;;;;-10.14;89.91;102165.09;5033935;28;20026;-71
2023/01/09 08:33:43;;;;;;;10.83;7.10;;;;;;;-10.21;89.94;102147.09;5034055;28;20029;-73
2023/01/09 08:36:09;;;;;;;9.20;6.43;;;;;;;-10.22;89.81;102156.53;5034449;28;20026;-76
2023/01/09 08:38:34;;;;;;;10.00;7.23;;;;;;;-10.28;89.51;102160.81;5033586;28;20365;-73
2023/01/09 08:47:04;;;;;;;7.53;6.23;;;;;;;-10.38;90.00;102147.94;5033661;28;20028;-72
2023/01/09 08:49:13;;;;;;;8.30;6.63;;;;;;;-10.30;89.99;102136.78;5033471;28;20540;-73
2023/01/09 08:51:39;;;;;;;7.90;7.10;;;;;;;-10.36;89.79;102151.38;5033561;28;20032;-72
2023/01/09 08:54:04;;;;;;;14.47;7.83;;;;;;;-10.63;90.15;102099.81;5033749;28;20037;-74
2023/01/09 08:56:30;;;;;;;10.77;7.50;;;;;;;-10.36;90.17;102130.75;5033113;28;20098;-72
2023/01/09 08:58:55;;;;;;;9.73;6.23;;;;;;;-10.34;90.42;102135.91;5033476;28;20120;-72
2023/01/09 09:01:20;;;;;;;8.10;7.10;;;;;;;-10.32;91.36;102129.91;5032868;28;20029;-73
2023/01/09 09:03:46;;;;;;;7.70;6.73;;;;;;;-10.21;91.06;102136.78;5033090;28;20365;-74
2023/01/09 09:06:15;;;;;;;9.75;7.78;;;;;;;-10.12;91.25;102135.06;5033024;28;20037;-71
2023/01/09 09:08:40;;;;;;;10.10;6.60;;;;;;;-10.14;90.57;102138.47;5033368;28;20048;-72
2023/01/09 09:11:06;;;;;;;13.70;7.70;;;;;;;-10.11;90.10;102133.34;5032656;28;20698;-71
2023/01/09 09:13:31;;;;;;;7.47;6.43;;;;;;;-10.14;89.73;102143.63;5033154;28;20163;-76
2023/01/09 09:15:59;;;;;;;8.27;7.10;;;;;;;-10.11;90.09;102143.66;5032627;28;20046;-73
2023/01/09 09:18:25;;;;;;;10.07;7.25;;;;;;;-10.20;89.40;102135.94;5033007;28;20485;-72
2023/01/09 09:20:50;;;;;;;9.67;6.83;;;;;;;-10.19;89.93;102147.91;5032616;28;20035;-71
2023/01/09 09:23:15;;;;;;;11.13;7.33;;;;;;;-10.25;89.35;102142.78;5032567;28;20057;-73
2023/01/09 09:25:41;;;;;;;11.23;7.83;;;;;;;-10.22;89.60;102141.06;5014865;28;20021;-75
2023/01/09 09:28:07;;;;;;;14.00;7.90;;;;;;;-10.12;89.61;102147.06;5032226;28;20021;-74
2023/01/09 09:30:32;;;;;;;7.80;6.27;;;;;;;-10.13;89.87;102129.88;5032457;28;20119;-73
2023/01/09 09:32:58;;;;;;;7.70;6.50;;;;;;;-10.14;89.13;102135.91;5033268;28;20048;-72
2023/01/09 09:35:23;;;;;;;10.80;6.87;;;;;;;-10.13;89.33;102124.72;5018060;28;20036;-72
2023/01/09 09:37:55;;;;;;;11.70;7.33;;;;;;;-10.16;89.39;102137.63;5016842;28;20033;-76
2023/01/09 09:40:33;;;;;;;13.13;7.63;;;;;;;-10.13;89.97;102135.03;5032694;28;20052;-74
2023/01/09 09:46:29;;;;;;;9.60;6.85;;;;;;;-10.15;89.93;102135.03;5014883;28;20037;-71
2023/01/09 09:49:05;;;;;;;12.43;7.32;;;;;;;-10.14;90.18;102121.28;5032550;28;20044;-71
2023/01/09 09:51:56;;;;;;;14.38;8.02;;;;;;;-10.02;89.31;102129.03;5015092;28;20031;-73
2023/01/09 09:54:44;;;;;;;11.10;7.70;;;;;;;-10.06;89.05;102122.19;5032627;28;20029;-74
2023/01/09 09:57:16;;;;;;;9.57;7.43;;;;;;;-10.04;89.50;102114.44;5032473;28;20039;-74
2023/01/09 09:59:43;;;;;;;10.32;6.50;;;;;;;-9.96;89.53;102128.19;5032737;28;20580;-72
2023/01/09 10:02:08;;;;;;;11.55;8.18;;;;;;;-9.91;89.14;102129.03;5032290;28;20028;-73
2023/01/09 10:04:41;;;;;;;12.10;8.33;;;;;;;-9.91;89.41;102099.84;5032613;28;20458;-71
2023/01/09 10:07:19;;;;;;;9.32;7.50;;;;;;;-9.85;89.03;102104.97;5035829;28;20038;-72
2023/01/09 10:09:50;;;;;;;10.98;7.97;;;;;;;-9.75;88.94;102105.00;5037589;28;20033;-73
2023/01/09 10:12:34;;;;;;;9.48;7.88;;;;;;;-9.76;89.02;102116.16;5033117;28;20083;-73
2023/01/09 10:15:15;;;;;;;11.93;8.40;;;;;;;-9.83;88.93;102109.28;5031667;28;20026;-71
2023/01/09 10:18:07;;;;;;;15.43;9.13;;;;;;;-9.84;89.08;102093.81;5031886;28;20535;-74
2023/01/09 10:20:49;;;;;;;11.13;7.75;;;;;;;-9.85;89.26;102089.50;5033046;28;20140;-71
2023/01/09 10:23:33;;;;;;;9.15;7.88;;;;;;;-9.86;88.87;102070.59;5032068;28;20519;-77
2023/01/09 10:26:25;;;;;;;10.15;7.95;;;;;;;-9.85;89.31;102090.38;5031998;28;20365;-71
2023/01/09 10:29:12;;;;;;;11.00;7.60;;;;;;;-9.72;89.23;102104.97;5032050;28;20064;-75
2023/01/09 10:31:59;;;;;;;9.43;7.50;;;;;;;-9.68;88.93;102104.13;5032400;28;20025;-72
2023/01/09 10:34:50;;;;;;;13.18;8.02;;;;;;;-9.64;89.77;102096.38;5032067;28;20545;-74
2023/01/09 10:37:23;;;;;;;8.85;6.90;;;;;;;-9.61;88.94;102091.19;5032343;28;20028;-75
2023/01/09 10:39:53;;;;;;;16.10;7.60;;;;;;;-9.60;88.78;102080.03;5034549;28;20091;-73
2023/01/09 10:42:40;;;;;;;10.77;6.78;;;;;;;-9.74;89.23;102087.78;5036694;28;20025;-74
2023/01/09 10:45:18;;;;;;;13.82;7.82;;;;;;;-9.79;89.46;102069.75;5036192;28;20026;-73
2023/01/09 10:47:44;;;;;;;9.60;6.20;;;;;;;-9.72;90.01;102086.06;5018117;28;20022;-75
2023/01/09 10:50:23;;;;;;;10.20;8.37;;;;;;;-9.81;89.76;102081.81;5036104;28;20036;-75
2023/01/09 10:52:55;;;;;;;11.98;7.57;;;;;;;-9.81;90.10;102071.50;5018138;28;20029;-76
2023/01/09 10:55:48;;;;;;;9.45;8.15;;;;;;;-9.74;90.02;102068.03;5035762;28;20510;-76
2023/01/09 10:58:19;;;;;;;9.45;7.93;;;;;;;-9.80;89.36;102047.44;5035619;28;20025;-73
2023/01/09 11:00:46;;;;;;;11.35;8.38;;;;;;;-9.66;89.52;102075.75;5035481;28;20033;-74
2023/01/09 11:03:22;;;;;;;8.80;7.90;;;;;;;-9.69;89.37;102086.94;5036028;28;20025;-73
2023/01/09 11:05:56;;;;;;;12.25;8.27;;;;;;;-9.74;89.78;102075.78;5035868;28;20026;-71
2023/01/09 11:08:24;;;;;;;13.15;8.05;;;;;;;-9.73;89.88;102068.88;5036124;28;20046;-72
2023/01/09 11:10:55;;;;;;;7.78;5.68;;;;;;;-9.64;90.10;102068.00;5035807;28;20083;-73
2023/01/09 11:13:23;;;;;;;10.18;6.93;;;;;;;-9.59;89.92;102063.69;5019125;28;20018;-70
2023/01/09 11:16:05;;;;;;;8.82;6.68;;;;;;;-9.48;89.74;102075.72;5035940;28;20053;-71
2023/01/09 11:18:32;;;;;;;10.65;6.70;;;;;;;-9.55;89.44;102073.13;5018684;28;20084;-74
2023/01/09 11:21:24;;;;;;;10.27;8.05;;;;;;;-9.60;89.91;102059.41;5037623;28;20031;-73
2023/01/09 11:23:50;;;;;;;11.73;8.18;;;;;;;-9.52;89.46;102073.16;5036653;28;20346;-71
2023/01/09 11:26:25;;;;;;;11.17;9.23;;;;;;;-9.61;89.31;102058.53;5051259;28;20025;-71
2023/01/09 11:29:12;;;;;;;9.70;7.15;;;;;;;-9.62;89.92;102071.44;5054704;28;20029;-70
2023/01/09 11:31:40;;;;;;;11.73;7.90;;;;;;;-9.59;90.18;102069.72;5053280;28;20037;-72
2023/01/09 11:34:15;;;;;;;11.60;7.10;;;;;;;-9.49;90.15;102080.88;5048441;28;20115;-70
2023/01/09 11:36:41;;;;;;;14.20;8.48;;;;;;;-9.43;90.08;102078.28;5037084;28;20099;-73
2023/01/09 11:39:40;;;;;;;13.47;6.93;;;;;;;-9.44;89.35;102068.81;5036156;28;20509;-74
2023/01/09 11:42:17;;;;;;;10.60;8.77;;;;;;;-9.54;89.59;102068.00;5035532;28;20083;-71
2023/01/09 11:44:44;;;;;;;12.43;8.73;;;;;;;-9.56;89.90;102071.41;5035114;28;20083;-73
2023/01/09 11:47:34;;;;;;;10.32;7.95;;;;;;;-9.59;90.45;102067.13;5034566;28;20095;-70